sensor_id;sensor_type;location;lat;lon;timestamp;temperature;humidity
55436;DHT22;41307;53.142;6.430;2023-09-12T00:01:47;19.40;99.90
55436;DHT22;41307;53.142;6.430;2023-09-12T00:04:13;19.40;99.90
55436;DHT22;41307;53.142;6.430;2023-09-12T00:06:39;19.40;99.90
55436;DHT22;41307;53.142;6.430;2023-09-12T00:09:05;19.30;99.90
55436;DHT22;41307;53.142;6.430;2023-09-12T00:11:34;19.30;99.90
55436;DHT22;41307;53.142;6.430;2023-09-12T00:14:03;19.30;99.90
55436;DHT22;41307;53.142;6.430;2023-09-12T00:16:31;19.30;99.90
55436;DHT22;41307;53.142;6.430;2023-09-12T00:18:57;19.20;99.90
55436;DHT22;41307;53.142;6.430;2023-09-12T00:21:23;19.30;99.90
55436;DHT22;41307;53.142;6.430;2023-09-12T00:23:49;19.20;99.90
55436;DHT22;41307;53.142;6.430;2023-09-12T00:26:15;19.20;99.90
55436;DHT22;41307;53.142;6.430;2023-09-12T00:28:40;19.20;99.90
55436;DHT22;41307;53.142;6.430;2023-09-12T00:31:09;19.20;99.90
55436;DHT22;41307;53.142;6.430;2023-09-12T00:33:35;19.10;99.90
55436;DHT22;41307;53.142;6.430;2023-09-12T00:36:01;19.20;99.90
55436;DHT22;41307;53.142;6.430;2023-09-12T00:38:26;19.20;99.90
55436;DHT22;41307;53.142;6.430;2023-09-12T00:40:52;19.20;99.90
55436;DHT22;41307;53.142;6.430;2023-09-12T00:43:18;19.20;99.90
55436;DHT22;41307;53.142;6.430;2023-09-12T00:45:44;19.10;99.90
55436;DHT22;41307;53.142;6.430;2023-09-12T00:48:09;19.10;99.90
55436;DHT22;41307;53.142;6.430;2023-09-12T00:50:37;19.10;99.90
55436;DHT22;41307;53.142;6.430;2023-09-12T00:53:04;19.10;99.90
55436;DHT22;41307;53.142;6.430;2023-09-12T00:55:34;19.20;99.90
55436;DHT22;41307;53.142;6.430;2023-09-12T00:58:04;19.10;99.90
55436;DHT22;41307;53.142;6.430;2023-09-12T01:00:33;19.10;99.90
55436;DHT22;41307;53.142;6.430;2023-09-12T01:03:01;19.10;99.90
55436;DHT22;41307;53.142;6.430;2023-09-12T01:05:28;19.10;99.90
55436;DHT22;41307;53.142;6.430;2023-09-12T01:08:03;19.10;99.90
55436;DHT22;41307;53.142;6.430;2023-09-12T01:10:29;19.00;99.90
55436;DHT22;41307;53.142;6.430;2023-09-12T01:12:55;19.10;99.90
55436;DHT22;41307;53.142;6.430;2023-09-12T01:15:26;19.00;99.90
55436;DHT22;41307;53.142;6.430;2023-09-12T01:17:52;19.00;99.90
55436;DHT22;41307;53.142;6.430;2023-09-12T01:20:27;19.00;99.90
55436;DHT22;41307;53.142;6.430;2023-09-12T01:28:12;18.90;99.90
55436;DHT22;41307;53.142;6.430;2023-09-12T01:30:42;18.90;99.90
55436;DHT22;41307;53.142;6.430;2023-09-12T01:33:11;18.90;99.90
55436;DHT22;41307;53.142;6.430;2023-09-12T01:35:37;18.80;99.90
55436;DHT22;41307;53.142;6.430;2023-09-12T01:38:03;18.80;99.90
55436;DHT22;41307;53.142;6.430;2023-09-12T01:40:44;18.70;99.90
55436;DHT22;41307;53.142;6.430;2023-09-12T01:43:14;18.70;99.90
55436;DHT22;41307;53.142;6.430;2023-09-12T01:45:41;18.60;99.90
55436;DHT22;41307;53.142;6.430;2023-09-12T01:48:08;18.70;99.90
55436;DHT22;41307;53.142;6.430;2023-09-12T01:50:34;18.70;99.90
55436;DHT22;41307;53.142;6.430;2023-09-12T01:53:01;18.60;99.90
55436;DHT22;41307;53.142;6.430;2023-09-12T01:55:27;18.70;99.90
55436;DHT22;41307;53.142;6.430;2023-09-12T01:57:53;18.60;99.90
55436;DHT22;41307;53.142;6.430;2023-09-12T02:00:19;18.60;99.90
55436;DHT22;41307;53.142;6.430;2023-09-12T02:02:48;18.60;99.90
55436;DHT22;41307;53.142;6.430;2023-09-12T02:05:19;18.50;99.90
55436;DHT22;41307;53.142;6.430;2023-09-12T02:07:46;18.50;99.90
55436;DHT22;41307;53.142;6.430;2023-09-12T02:10:12;18.40;99.90
55436;DHT22;41307;53.142;6.430;2023-09-12T02:12:38;18.40;99.90
55436;DHT22;41307;53.142;6.430;2023-09-12T02:15:05;18.30;99.90
55436;DHT22;41307;53.142;6.430;2023-09-12T02:17:31;18.20;99.90
55436;DHT22;41307;53.142;6.430;2023-09-12T02:19:56;18.20;99.90
55436;DHT22;41307;53.142;6.430;2023-09-12T02:22:22;18.10;99.90
55436;DHT22;41307;53.142;6.430;2023-09-12T02:24:48;18.10;99.90
55436;DHT22;41307;53.142;6.430;2023-09-12T02:27:14;18.10;99.90
55436;DHT22;41307;53.142;6.430;2023-09-12T02:29:41;18.10;99.90
55436;DHT22;41307;53.142;6.430;2023-09-12T02:32:07;18.10;99.90
55436;DHT22;41307;53.142;6.430;2023-09-12T02:34:33;18.10;99.90
55436;DHT22;41307;53.142;6.430;2023-09-12T02:36:59;18.10;99.90
55436;DHT22;41307;53.142;6.430;2023-09-12T02:39:25;18.20;99.90
55436;DHT22;41307;53.142;6.430;2023-09-12T02:41:53;18.20;99.90
55436;DHT22;41307;53.142;6.430;2023-09-12T02:44:19;18.20;99.90
55436;DHT22;41307;53.142;6.430;2023-09-12T02:46:46;18.20;99.90
55436;DHT22;41307;53.142;6.430;2023-09-12T02:49:11;18.30;99.90
55436;DHT22;41307;53.142;6.430;2023-09-12T02:51:40;18.30;99.90
55436;DHT22;41307;53.142;6.430;2023-09-12T02:54:06;18.30;99.90
55436;DHT22;41307;53.142;6.430;2023-09-12T02:56:32;18.30;99.90
55436;DHT22;41307;53.142;6.430;2023-09-12T02:58:58;18.30;99.90
55436;DHT22;41307;53.142;6.430;2023-09-12T03:01:24;18.30;99.90
55436;DHT22;41307;53.142;6.430;2023-09-12T03:03:53;18.30;99.90
55436;DHT22;41307;53.142;6.430;2023-09-12T03:06:18;18.30;99.90
55436;DHT22;41307;53.142;6.430;2023-09-12T03:08:44;18.40;99.90
55436;DHT22;41307;53.142;6.430;2023-09-12T03:11:10;18.30;99.90
55436;DHT22;41307;53.142;6.430;2023-09-12T03:13:42;18.30;99.90
55436;DHT22;41307;53.142;6.430;2023-09-12T03:16:11;18.40;99.90
55436;DHT22;41307;53.142;6.430;2023-09-12T03:18:37;18.40;99.90
55436;DHT22;41307;53.142;6.430;2023-09-12T03:21:03;18.30;99.90
55436;DHT22;41307;53.142;6.430;2023-09-12T03:23:29;18.40;99.90
55436;DHT22;41307;53.142;6.430;2023-09-12T03:25:55;18.30;99.90
55436;DHT22;41307;53.142;6.430;2023-09-12T03:28:20;18.30;99.90
55436;DHT22;41307;53.142;6.430;2023-09-12T03:30:46;18.20;99.90
55436;DHT22;41307;53.142;6.430;2023-09-12T03:33:12;18.20;99.90
55436;DHT22;41307;53.142;6.430;2023-09-12T03:35:38;18.10;99.90
55436;DHT22;41307;53.142;6.430;2023-09-12T03:38:03;18.10;99.90
55436;DHT22;41307;53.142;6.430;2023-09-12T03:40:29;18.00;99.90
55436;DHT22;41307;53.142;6.430;2023-09-12T03:42:59;18.00;99.90
55436;DHT22;41307;53.142;6.430;2023-09-12T03:45:24;18.00;99.90
55436;DHT22;41307;53.142;6.430;2023-09-12T03:47:51;18.00;99.90
55436;DHT22;41307;53.142;6.430;2023-09-12T03:50:17;17.80;99.90
55436;DHT22;41307;53.142;6.430;2023-09-12T03:52:42;17.90;99.90
55436;DHT22;41307;53.142;6.430;2023-09-12T03:55:08;17.90;99.90
55436;DHT22;41307;53.142;6.430;2023-09-12T03:57:34;17.90;99.90
55436;DHT22;41307;53.142;6.430;2023-09-12T04:00:00;17.80;99.90
55436;DHT22;41307;53.142;6.430;2023-09-12T04:02:26;17.80;99.90
55436;DHT22;41307;53.142;6.430;2023-09-12T04:04:52;17.80;99.90
55436;DHT22;41307;53.142;6.430;2023-09-12T04:07:18;17.70;99.90
55436;DHT22;41307;53.142;6.430;2023-09-12T04:09:44;17.70;99.90
55436;DHT22;41307;53.142;6.430;2023-09-12T04:12:09;17.70;99.90
55436;DHT22;41307;53.142;6.430;2023-09-12T04:14:35;17.70;99.90
55436;DHT22;41307;53.142;6.430;2023-09-12T04:17:02;17.60;99.90
55436;DHT22;41307;53.142;6.430;2023-09-12T04:19:29;17.60;99.90
55436;DHT22;41307;53.142;6.430;2023-09-12T04:21:55;17.60;99.90
55436;DHT22;41307;53.142;6.430;2023-09-12T04:24:21;17.50;99.90
55436;DHT22;41307;53.142;6.430;2023-09-12T04:26:47;17.50;99.90
55436;DHT22;41307;53.142;6.430;2023-09-12T04:29:13;17.50;99.90
55436;DHT22;41307;53.142;6.430;2023-09-12T04:31:38;17.50;99.90
55436;DHT22;41307;53.142;6.430;2023-09-12T04:34:05;17.50;99.90
55436;DHT22;41307;53.142;6.430;2023-09-12T04:36:33;17.50;99.90
55436;DHT22;41307;53.142;6.430;2023-09-12T04:38:59;17.40;99.90
55436;DHT22;41307;53.142;6.430;2023-09-12T04:41:25;17.40;99.90
55436;DHT22;41307;53.142;6.430;2023-09-12T04:43:51;17.40;99.90
55436;DHT22;41307;53.142;6.430;2023-09-12T04:46:17;17.40;99.90
55436;DHT22;41307;53.142;6.430;2023-09-12T04:48:43;17.40;99.90
55436;DHT22;41307;53.142;6.430;2023-09-12T04:51:09;17.40;99.90
55436;DHT22;41307;53.142;6.430;2023-09-12T04:53:35;17.30;99.90
55436;DHT22;41307;53.142;6.430;2023-09-12T04:56:02;17.30;99.90
55436;DHT22;41307;53.142;6.430;2023-09-12T04:58:28;17.30;99.90
55436;DHT22;41307;53.142;6.430;2023-09-12T05:00:54;17.30;99.90
55436;DHT22;41307;53.142;6.430;2023-09-12T05:03:21;17.30;99.90
55436;DHT22;41307;53.142;6.430;2023-09-12T05:05:48;17.30;99.90
55436;DHT22;41307;53.142;6.430;2023-09-12T05:08:14;17.30;99.90
55436;DHT22;41307;53.142;6.430;2023-09-12T05:10:40;17.40;99.90
55436;DHT22;41307;53.142;6.430;2023-09-12T05:13:06;17.40;99.90
55436;DHT22;41307;53.142;6.430;2023-09-12T05:15:31;17.50;99.90
55436;DHT22;41307;53.142;6.430;2023-09-12T05:17:57;17.60;99.90
55436;DHT22;41307;53.142;6.430;2023-09-12T05:20:23;17.50;99.90
55436;DHT22;41307;53.142;6.430;2023-09-12T05:22:49;17.60;99.90
55436;DHT22;41307;53.142;6.430;2023-09-12T05:25:14;17.70;99.90
55436;DHT22;41307;53.142;6.430;2023-09-12T05:27:40;17.70;99.90
55436;DHT22;41307;53.142;6.430;2023-09-12T05:30:06;17.70;99.90
55436;DHT22;41307;53.142;6.430;2023-09-12T05:32:32;17.70;99.90
55436;DHT22;41307;53.142;6.430;2023-09-12T05:34:58;17.70;99.90
55436;DHT22;41307;53.142;6.430;2023-09-12T05:37:24;17.80;99.90
55436;DHT22;41307;53.142;6.430;2023-09-12T05:39:49;17.70;99.90
55436;DHT22;41307;53.142;6.430;2023-09-12T05:42:15;17.80;99.90
55436;DHT22;41307;53.142;6.430;2023-09-12T05:44:47;17.80;99.90
55436;DHT22;41307;53.142;6.430;2023-09-12T05:47:14;17.80;99.90
55436;DHT22;41307;53.142;6.430;2023-09-12T05:49:40;17.80;99.90
55436;DHT22;41307;53.142;6.430;2023-09-12T05:52:06;17.80;99.90
55436;DHT22;41307;53.142;6.430;2023-09-12T05:54:31;17.80;99.90
55436;DHT22;41307;53.142;6.430;2023-09-12T05:56:57;17.80;99.90
55436;DHT22;41307;53.142;6.430;2023-09-12T05:59:23;17.90;99.90
55436;DHT22;41307;53.142;6.430;2023-09-12T06:01:49;17.80;99.90
55436;DHT22;41307;53.142;6.430;2023-09-12T06:04:14;17.90;99.90
55436;DHT22;41307;53.142;6.430;2023-09-12T06:06:40;17.90;99.90
55436;DHT22;41307;53.142;6.430;2023-09-12T06:09:06;18.00;99.90
55436;DHT22;41307;53.142;6.430;2023-09-12T06:11:34;18.00;99.90
55436;DHT22;41307;53.142;6.430;2023-09-12T06:14:00;18.00;99.90
55436;DHT22;41307;53.142;6.430;2023-09-12T06:16:25;18.10;99.90
55436;DHT22;41307;53.142;6.430;2023-09-12T06:18:52;18.00;99.90
55436;DHT22;41307;53.142;6.430;2023-09-12T06:21:19;18.00;99.90
55436;DHT22;41307;53.142;6.430;2023-09-12T06:24:12;18.10;99.90
55436;DHT22;41307;53.142;6.430;2023-09-12T06:26:39;18.10;99.90
55436;DHT22;41307;53.142;6.430;2023-09-12T06:29:05;18.10;99.90
55436;DHT22;41307;53.142;6.430;2023-09-12T06:31:32;18.10;99.90
55436;DHT22;41307;53.142;6.430;2023-09-12T06:33:58;18.10;99.90
55436;DHT22;41307;53.142;6.430;2023-09-12T06:36:25;18.10;99.90
55436;DHT22;41307;53.142;6.430;2023-09-12T06:38:51;18.10;99.90
55436;DHT22;41307;53.142;6.430;2023-09-12T06:41:20;18.20;99.90
55436;DHT22;41307;53.142;6.430;2023-09-12T06:43:46;18.20;99.90
55436;DHT22;41307;53.142;6.430;2023-09-12T06:46:12;18.20;99.90
55436;DHT22;41307;53.142;6.430;2023-09-12T06:48:37;18.10;99.90
55436;DHT22;41307;53.142;6.430;2023-09-12T06:51:06;18.20;99.90
55436;DHT22;41307;53.142;6.430;2023-09-12T06:53:32;18.20;99.90
55436;DHT22;41307;53.142;6.430;2023-09-12T06:55:57;18.20;99.90
55436;DHT22;41307;53.142;6.430;2023-09-12T06:58:24;18.30;99.90
55436;DHT22;41307;53.142;6.430;2023-09-12T07:00:50;18.40;99.90
55436;DHT22;41307;53.142;6.430;2023-09-12T07:03:16;18.50;99.90
55436;DHT22;41307;53.142;6.430;2023-09-12T07:05:42;18.50;99.90
55436;DHT22;41307;53.142;6.430;2023-09-12T07:08:09;18.60;99.90
55436;DHT22;41307;53.142;6.430;2023-09-12T07:10:35;18.60;99.90
55436;DHT22;41307;53.142;6.430;2023-09-12T07:13:01;18.70;99.90
55436;DHT22;41307;53.142;6.430;2023-09-12T07:15:27;18.70;99.90
55436;DHT22;41307;53.142;6.430;2023-09-12T07:17:53;18.80;99.90
55436;DHT22;41307;53.142;6.430;2023-09-12T07:20:19;19.00;99.90
55436;DHT22;41307;53.142;6.430;2023-09-12T07:22:46;19.10;99.90
55436;DHT22;41307;53.142;6.430;2023-09-12T07:25:14;19.10;99.90
55436;DHT22;41307;53.142;6.430;2023-09-12T07:27:40;19.20;99.90
55436;DHT22;41307;53.142;6.430;2023-09-12T07:30:06;19.30;99.90
55436;DHT22;41307;53.142;6.430;2023-09-12T07:32:32;19.40;99.90
55436;DHT22;41307;53.142;6.430;2023-09-12T07:34:58;19.40;99.90
55436;DHT22;41307;53.142;6.430;2023-09-12T07:37:24;19.50;99.90
55436;DHT22;41307;53.142;6.430;2023-09-12T07:39:50;19.50;99.90
55436;DHT22;41307;53.142;6.430;2023-09-12T07:42:24;19.70;99.90
55436;DHT22;41307;53.142;6.430;2023-09-12T07:44:50;19.80;99.90
55436;DHT22;41307;53.142;6.430;2023-09-12T07:47:16;19.80;99.90
55436;DHT22;41307;53.142;6.430;2023-09-12T07:49:42;19.70;99.90
55436;DHT22;41307;53.142;6.430;2023-09-12T07:52:07;19.60;99.90
55436;DHT22;41307;53.142;6.430;2023-09-12T07:54:34;19.60;99.90
55436;DHT22;41307;53.142;6.430;2023-09-12T07:57:00;19.40;99.90
55436;DHT22;41307;53.142;6.430;2023-09-12T07:59:25;19.40;99.90
55436;DHT22;41307;53.142;6.430;2023-09-12T08:01:51;19.30;99.90
55436;DHT22;41307;53.142;6.430;2023-09-12T08:04:17;19.40;99.90
55436;DHT22;41307;53.142;6.430;2023-09-12T08:06:43;19.30;99.90
55436;DHT22;41307;53.142;6.430;2023-09-12T08:09:09;19.40;99.90
55436;DHT22;41307;53.142;6.430;2023-09-12T08:11:35;19.30;99.90
55436;DHT22;41307;53.142;6.430;2023-09-12T08:14:01;19.30;99.90
55436;DHT22;41307;53.142;6.430;2023-09-12T08:16:27;19.40;99.90
55436;DHT22;41307;53.142;6.430;2023-09-12T08:18:53;19.50;99.90
55436;DHT22;41307;53.142;6.430;2023-09-12T08:21:19;19.60;99.90
55436;DHT22;41307;53.142;6.430;2023-09-12T08:23:44;19.70;99.90
55436;DHT22;41307;53.142;6.430;2023-09-12T08:26:11;19.70;99.90
55436;DHT22;41307;53.142;6.430;2023-09-12T08:28:37;20.00;99.90
55436;DHT22;41307;53.142;6.430;2023-09-12T08:31:02;20.10;99.90
55436;DHT22;41307;53.142;6.430;2023-09-12T08:33:28;20.30;99.90
55436;DHT22;41307;53.142;6.430;2023-09-12T08:35:54;20.40;99.90
55436;DHT22;41307;53.142;6.430;2023-09-12T08:38:20;20.50;99.90
55436;DHT22;41307;53.142;6.430;2023-09-12T08:40:49;20.70;99.90
55436;DHT22;41307;53.142;6.430;2023-09-12T08:43:16;20.80;99.90
55436;DHT22;41307;53.142;6.430;2023-09-12T08:45:42;20.90;99.90
55436;DHT22;41307;53.142;6.430;2023-09-12T08:48:12;21.00;99.90
55436;DHT22;41307;53.142;6.430;2023-09-12T08:50:38;21.10;99.90
55436;DHT22;41307;53.142;6.430;2023-09-12T08:53:04;21.00;99.90
55436;DHT22;41307;53.142;6.430;2023-09-12T08:55:31;20.80;99.90
55436;DHT22;41307;53.142;6.430;2023-09-12T08:57:59;20.70;99.90
55436;DHT22;41307;53.142;6.430;2023-09-12T09:00:25;20.70;99.90
55436;DHT22;41307;53.142;6.430;2023-09-12T09:02:53;20.70;99.90
55436;DHT22;41307;53.142;6.430;2023-09-12T09:05:20;20.70;99.90
55436;DHT22;41307;53.142;6.430;2023-09-12T09:07:47;20.70;99.90
55436;DHT22;41307;53.142;6.430;2023-09-12T09:10:18;20.80;99.90
55436;DHT22;41307;53.142;6.430;2023-09-12T09:12:45;20.80;99.90
55436;DHT22;41307;53.142;6.430;2023-09-12T09:15:25;20.80;99.90
55436;DHT22;41307;53.142;6.430;2023-09-12T09:17:54;20.80;99.90
55436;DHT22;41307;53.142;6.430;2023-09-12T09:20:31;20.90;99.90
55436;DHT22;41307;53.142;6.430;2023-09-12T09:23:07;20.90;99.90
55436;DHT22;41307;53.142;6.430;2023-09-12T09:25:40;20.90;99.90
55436;DHT22;41307;53.142;6.430;2023-09-12T09:28:17;20.90;99.90
55436;DHT22;41307;53.142;6.430;2023-09-12T09:30:48;21.00;99.90
55436;DHT22;41307;53.142;6.430;2023-09-12T09:33:14;21.10;99.90
55436;DHT22;41307;53.142;6.430;2023-09-12T09:35:46;21.30;99.90
55436;DHT22;41307;53.142;6.430;2023-09-12T09:38:12;21.40;99.90
55436;DHT22;41307;53.142;6.430;2023-09-12T09:40:42;21.40;99.90
55436;DHT22;41307;53.142;6.430;2023-09-12T09:43:09;21.60;99.90
55436;DHT22;41307;53.142;6.430;2023-09-12T09:45:43;21.70;99.90
55436;DHT22;41307;53.142;6.430;2023-09-12T09:48:10;22.00;99.90
55436;DHT22;41307;53.142;6.430;2023-09-12T09:50:36;22.10;99.90
55436;DHT22;41307;53.142;6.430;2023-09-12T09:53:04;22.20;99.90
55436;DHT22;41307;53.142;6.430;2023-09-12T09:55:34;22.20;99.90
55436;DHT22;41307;53.142;6.430;2023-09-12T09:58:00;22.20;99.90
55436;DHT22;41307;53.142;6.430;2023-09-12T10:00:25;22.20;99.90
55436;DHT22;41307;53.142;6.430;2023-09-12T10:02:55;22.20;99.90
55436;DHT22;41307;53.142;6.430;2023-09-12T10:05:22;22.10;99.90
55436;DHT22;41307;53.142;6.430;2023-09-12T10:07:49;22.50;99.90
55436;DHT22;41307;53.142;6.430;2023-09-12T10:10:17;22.90;99.90
55436;DHT22;41307;53.142;6.430;2023-09-12T10:12:49;23.30;99.90
55436;DHT22;41307;53.142;6.430;2023-09-12T10:15:19;23.40;99.90
55436;DHT22;41307;53.142;6.430;2023-09-12T10:17:47;23.50;99.90
55436;DHT22;41307;53.142;6.430;2023-09-12T10:20:20;23.50;99.90
55436;DHT22;41307;53.142;6.430;2023-09-12T10:23:23;23.80;99.90
55436;DHT22;41307;53.142;6.430;2023-09-12T10:25:51;23.80;99.90
55436;DHT22;41307;53.142;6.430;2023-09-12T10:28:17;23.80;99.90
55436;DHT22;41307;53.142;6.430;2023-09-12T10:30:44;23.80;99.90
55436;DHT22;41307;53.142;6.430;2023-09-12T10:33:11;24.10;99.90
55436;DHT22;41307;53.142;6.430;2023-09-12T10:35:38;24.20;99.90
55436;DHT22;41307;53.142;6.430;2023-09-12T10:38:05;24.70;99.90
55436;DHT22;41307;53.142;6.430;2023-09-12T10:40:36;25.30;99.90
55436;DHT22;41307;53.142;6.430;2023-09-12T10:43:03;25.40;99.90
55436;DHT22;41307;53.142;6.430;2023-09-12T10:45:35;25.60;99.90
55436;DHT22;41307;53.142;6.430;2023-09-12T10:48:02;25.40;99.90
55436;DHT22;41307;53.142;6.430;2023-09-12T10:50:28;25.10;99.90
55436;DHT22;41307;53.142;6.430;2023-09-12T10:52:56;25.10;99.90
55436;DHT22;41307;53.142;6.430;2023-09-12T10:55:22;25.00;99.90
55436;DHT22;41307;53.142;6.430;2023-09-12T10:58:01;25.00;99.90
55436;DHT22;41307;53.142;6.430;2023-09-12T11:00:28;24.80;99.90
55436;DHT22;41307;53.142;6.430;2023-09-12T11:02:54;24.90;99.90
55436;DHT22;41307;53.142;6.430;2023-09-12T11:07:59;24.90;99.90
55436;DHT22;41307;53.142;6.430;2023-09-12T11:10:26;24.90;99.90
55436;DHT22;41307;53.142;6.430;2023-09-12T11:12:54;24.80;99.90
55436;DHT22;41307;53.142;6.430;2023-09-12T11:15:22;24.50;99.90
55436;DHT22;41307;53.142;6.430;2023-09-12T11:17:49;24.70;99.90
55436;DHT22;41307;53.142;6.430;2023-09-12T11:20:16;24.60;99.90
55436;DHT22;41307;53.142;6.430;2023-09-12T11:22:44;24.60;99.90
55436;DHT22;41307;53.142;6.430;2023-09-12T11:25:19;24.70;99.90
55436;DHT22;41307;53.142;6.430;2023-09-12T11:30:24;24.70;99.90
55436;DHT22;41307;53.142;6.430;2023-09-12T11:32:51;24.80;99.90
55436;DHT22;41307;53.142;6.430;2023-09-12T11:35:26;24.80;99.90
55436;DHT22;41307;53.142;6.430;2023-09-12T11:37:58;24.90;99.90
55436;DHT22;41307;53.142;6.430;2023-09-12T11:40:42;25.10;99.90
55436;DHT22;41307;53.142;6.430;2023-09-12T11:43:21;25.20;99.90
55436;DHT22;41307;53.142;6.430;2023-09-12T11:45:47;25.20;99.90
55436;DHT22;41307;53.142;6.430;2023-09-12T11:48:13;25.10;99.90
55436;DHT22;41307;53.142;6.430;2023-09-12T11:50:39;24.90;99.90
55436;DHT22;41307;53.142;6.430;2023-09-12T11:53:11;25.00;99.90
55436;DHT22;41307;53.142;6.430;2023-09-12T11:55:43;24.90;99.90
55436;DHT22;41307;53.142;6.430;2023-09-12T11:58:11;24.90;99.90
55436;DHT22;41307;53.142;6.430;2023-09-12T12:00:37;24.80;99.90
55436;DHT22;41307;53.142;6.430;2023-09-12T12:03:04;24.70;99.90
55436;DHT22;41307;53.142;6.430;2023-09-12T12:05:30;24.80;99.90
55436;DHT22;41307;53.142;6.430;2023-09-12T12:07:58;24.90;99.90
55436;DHT22;41307;53.142;6.430;2023-09-12T12:10:24;25.10;99.90
55436;DHT22;41307;53.142;6.430;2023-09-12T12:12:53;25.20;99.90
55436;DHT22;41307;53.142;6.430;2023-09-12T12:15:19;25.40;99.90
55436;DHT22;41307;53.142;6.430;2023-09-12T12:17:45;25.50;99.90
55436;DHT22;41307;53.142;6.430;2023-09-12T12:20:11;25.80;99.90
55436;DHT22;41307;53.142;6.430;2023-09-12T12:22:40;25.60;99.90
55436;DHT22;41307;53.142;6.430;2023-09-12T12:25:07;25.60;99.90
55436;DHT22;41307;53.142;6.430;2023-09-12T12:27:38;25.90;99.90
55436;DHT22;41307;53.142;6.430;2023-09-12T12:30:06;25.90;99.90
55436;DHT22;41307;53.142;6.430;2023-09-12T12:32:32;26.10;99.90
55436;DHT22;41307;53.142;6.430;2023-09-12T12:34:58;26.10;99.90
55436;DHT22;41307;53.142;6.430;2023-09-12T12:37:28;26.00;99.90
55436;DHT22;41307;53.142;6.430;2023-09-12T12:39:59;26.00;99.90
55436;DHT22;41307;53.142;6.430;2023-09-12T12:42:38;25.80;99.90
55436;DHT22;41307;53.142;6.430;2023-09-12T12:45:14;25.70;99.90
55436;DHT22;41307;53.142;6.430;2023-09-12T12:47:41;25.40;99.90
55436;DHT22;41307;53.142;6.430;2023-09-12T12:50:14;25.30;99.90
55436;DHT22;41307;53.142;6.430;2023-09-12T12:52:41;25.20;99.90
55436;DHT22;41307;53.142;6.430;2023-09-12T12:55:09;24.90;99.90
55436;DHT22;41307;53.142;6.430;2023-09-12T12:57:37;24.80;99.90
55436;DHT22;41307;53.142;6.430;2023-09-12T13:00:11;24.80;99.90
55436;DHT22;41307;53.142;6.430;2023-09-12T13:02:38;24.80;99.90
55436;DHT22;41307;53.142;6.430;2023-09-12T13:05:06;25.00;99.90
55436;DHT22;41307;53.142;6.430;2023-09-12T13:07:36;25.00;99.90
55436;DHT22;41307;53.142;6.430;2023-09-12T13:10:02;25.00;99.90
55436;DHT22;41307;53.142;6.430;2023-09-12T13:12:30;25.00;99.90
55436;DHT22;41307;53.142;6.430;2023-09-12T13:14:56;25.10;99.90
55436;DHT22;41307;53.142;6.430;2023-09-12T13:17:21;25.20;99.90
55436;DHT22;41307;53.142;6.430;2023-09-12T13:19:47;25.30;99.90
55436;DHT22;41307;53.142;6.430;2023-09-12T13:22:13;25.10;99.90
55436;DHT22;41307;53.142;6.430;2023-09-12T13:24:39;25.10;99.90
55436;DHT22;41307;53.142;6.430;2023-09-12T13:27:04;25.20;99.90
55436;DHT22;41307;53.142;6.430;2023-09-12T13:29:30;25.20;99.90
55436;DHT22;41307;53.142;6.430;2023-09-12T13:31:56;25.30;99.90
55436;DHT22;41307;53.142;6.430;2023-09-12T13:34:21;25.30;99.90
55436;DHT22;41307;53.142;6.430;2023-09-12T13:36:48;25.40;99.90
55436;DHT22;41307;53.142;6.430;2023-09-12T13:39:14;25.30;99.90
55436;DHT22;41307;53.142;6.430;2023-09-12T13:41:40;25.20;99.90
55436;DHT22;41307;53.142;6.430;2023-09-12T13:44:06;25.20;99.90
55436;DHT22;41307;53.142;6.430;2023-09-12T13:46:32;25.10;99.90
55436;DHT22;41307;53.142;6.430;2023-09-12T13:48:57;25.10;99.90
55436;DHT22;41307;53.142;6.430;2023-09-12T13:51:29;25.10;99.90
55436;DHT22;41307;53.142;6.430;2023-09-12T13:53:55;25.30;99.90
55436;DHT22;41307;53.142;6.430;2023-09-12T13:56:21;25.30;99.90
55436;DHT22;41307;53.142;6.430;2023-09-12T13:58:46;25.30;99.90
55436;DHT22;41307;53.142;6.430;2023-09-12T14:01:12;25.10;99.90
55436;DHT22;41307;53.142;6.430;2023-09-12T14:03:38;25.10;99.90
55436;DHT22;41307;53.142;6.430;2023-09-12T14:06:03;25.10;99.90
55436;DHT22;41307;53.142;6.430;2023-09-12T14:08:29;24.90;99.90
55436;DHT22;41307;53.142;6.430;2023-09-12T14:10:55;25.00;99.90
55436;DHT22;41307;53.142;6.430;2023-09-12T14:13:21;25.00;99.90
55436;DHT22;41307;53.142;6.430;2023-09-12T14:15:47;25.00;99.90
55436;DHT22;41307;53.142;6.430;2023-09-12T14:18:15;24.90;99.90
55436;DHT22;41307;53.142;6.430;2023-09-12T14:20:41;24.90;99.90
55436;DHT22;41307;53.142;6.430;2023-09-12T14:23:07;24.80;99.90
55436;DHT22;41307;53.142;6.430;2023-09-12T14:25:32;24.70;99.90
55436;DHT22;41307;53.142;6.430;2023-09-12T14:27:58;24.70;99.90
55436;DHT22;41307;53.142;6.430;2023-09-12T14:30:24;24.70;99.90
55436;DHT22;41307;53.142;6.430;2023-09-12T14:32:52;24.60;99.90
55436;DHT22;41307;53.142;6.430;2023-09-12T14:35:18;24.60;99.90
55436;DHT22;41307;53.142;6.430;2023-09-12T14:37:43;24.50;99.90
55436;DHT22;41307;53.142;6.430;2023-09-12T14:40:09;24.40;99.90
55436;DHT22;41307;53.142;6.430;2023-09-12T14:42:36;24.40;99.90
55436;DHT22;41307;53.142;6.430;2023-09-12T14:45:02;24.20;99.90
55436;DHT22;41307;53.142;6.430;2023-09-12T14:47:28;24.10;99.90
55436;DHT22;41307;53.142;6.430;2023-09-12T14:49:55;24.00;99.90
55436;DHT22;41307;53.142;6.430;2023-09-12T14:52:21;24.10;99.90
55436;DHT22;41307;53.142;6.430;2023-09-12T14:54:47;24.20;99.90
55436;DHT22;41307;53.142;6.430;2023-09-12T14:57:13;24.20;99.90
55436;DHT22;41307;53.142;6.430;2023-09-12T14:59:38;24.20;99.90
55436;DHT22;41307;53.142;6.430;2023-09-12T15:02:04;24.20;99.90
55436;DHT22;41307;53.142;6.430;2023-09-12T15:04:30;24.20;99.90
55436;DHT22;41307;53.142;6.430;2023-09-12T15:06:55;24.10;99.90
55436;DHT22;41307;53.142;6.430;2023-09-12T15:09:21;24.00;99.90
55436;DHT22;41307;53.142;6.430;2023-09-12T15:11:47;24.00;99.90
55436;DHT22;41307;53.142;6.430;2023-09-12T15:14:13;24.10;99.90
55436;DHT22;41307;53.142;6.430;2023-09-12T15:16:38;24.20;99.90
55436;DHT22;41307;53.142;6.430;2023-09-12T15:19:04;24.30;99.90
55436;DHT22;41307;53.142;6.430;2023-09-12T15:21:30;24.40;99.90
55436;DHT22;41307;53.142;6.430;2023-09-12T15:23:55;24.40;99.90
55436;DHT22;41307;53.142;6.430;2023-09-12T15:26:21;24.40;99.90
55436;DHT22;41307;53.142;6.430;2023-09-12T15:28:47;24.50;99.90
55436;DHT22;41307;53.142;6.430;2023-09-12T15:31:12;24.40;99.90
55436;DHT22;41307;53.142;6.430;2023-09-12T15:33:38;24.40;99.90
55436;DHT22;41307;53.142;6.430;2023-09-12T15:36:04;24.20;99.90
55436;DHT22;41307;53.142;6.430;2023-09-12T15:38:30;24.00;99.90
55436;DHT22;41307;53.142;6.430;2023-09-12T15:40:56;23.80;99.90